sensor_id;sensor_type;location;lat;lon;timestamp;pressure;altitude;pressure_sealevel;temperature;humidity
41898;BME280;27576;53.366;-1.498;2023-05-25T00:01:57;101443.56;;;16.56;82.14
41898;BME280;27576;53.366;-1.498;2023-05-25T00:04:23;101428.66;;;16.42;82.15
41898;BME280;27576;53.366;-1.498;2023-05-25T00:06:51;101456.63;;;16.54;82.44
41898;BME280;27576;53.366;-1.498;2023-05-25T00:09:17;101449.59;;;16.45;83.79
41898;BME280;27576;53.366;-1.498;2023-05-25T00:11:42;101453.97;;;16.45;83.68
41898;BME280;27576;53.366;-1.498;2023-05-25T00:14:08;101474.94;;;16.54;83.08
41898;BME280;27576;53.366;-1.498;2023-05-25T00:16:33;101449.56;;;16.36;82.92
41898;BME280;27576;53.366;-1.498;2023-05-25T00:19:04;101422.47;;;16.24;82.32
41898;BME280;27576;53.366;-1.498;2023-05-25T00:21:29;101443.47;;;16.40;82.55
41898;BME280;27576;53.366;-1.498;2023-05-25T00:23:55;101471.44;;;16.52;83.82
41898;BME280;27576;53.366;-1.498;2023-05-25T00:26:20;101442.53;;;16.31;82.67
41898;BME280;27576;53.366;-1.498;2023-05-25T00:28:45;101450.44;;;16.35;82.88
41898;BME280;27576;53.366;-1.498;2023-05-25T00:31:11;101474.03;;;16.46;83.88
41898;BME280;27576;53.366;-1.498;2023-05-25T00:33:36;101425.06;;;16.20;82.80
41898;BME280;27576;53.366;-1.498;2023-05-25T00:36:02;101472.31;;;16.48;83.24
41898;BME280;27576;53.366;-1.498;2023-05-25T00:38:27;101464.44;;;16.43;81.89
41898;BME280;27576;53.366;-1.498;2023-05-25T00:40:56;101466.16;;;16.40;83.68
41898;BME280;27576;53.366;-1.498;2023-05-25T00:43:21;101449.53;;;16.32;83.37
41898;BME280;27576;53.366;-1.498;2023-05-25T00:45:49;101474.03;;;16.44;82.53
41898;BME280;27576;53.366;-1.498;2023-05-25T00:48:15;101460.03;;;16.35;81.95
41898;BME280;27576;53.366;-1.498;2023-05-25T00:50:42;101474.91;;;16.43;81.76
41898;BME280;27576;53.366;-1.498;2023-05-25T00:53:09;101459.13;;;16.31;81.67
41898;BME280;27576;53.366;-1.498;2023-05-25T00:55:43;101472.25;;;16.39;82.01
41898;BME280;27576;53.366;-1.498;2023-05-25T00:58:10;101452.97;;;16.23;83.51
41898;BME280;27576;53.366;-1.498;2023-05-25T01:00:36;101466.06;;;16.31;85.09
41898;BME280;27576;53.366;-1.498;2023-05-25T01:03:10;101480.06;;;16.37;86.88
41898;BME280;27576;53.366;-1.498;2023-05-25T01:05:39;101480.06;;;16.33;86.27
41898;BME280;27576;53.366;-1.498;2023-05-25T01:08:07;101487.03;;;16.34;85.76
41898;BME280;27576;53.366;-1.498;2023-05-25T01:10:34;101468.66;;;16.25;86.86
41898;BME280;27576;53.366;-1.498;2023-05-25T01:13:01;101445.94;;;16.14;87.32
41898;BME280;27576;53.366;-1.498;2023-05-25T01:15:29;101439.84;;;16.12;84.81
41898;BME280;27576;53.366;-1.498;2023-05-25T01:17:55;101459.06;;;16.22;84.14
41898;BME280;27576;53.366;-1.498;2023-05-25T01:20:24;101447.69;;;16.12;83.92
41898;BME280;27576;53.366;-1.498;2023-05-25T01:23:10;101463.44;;;16.23;84.76
41898;BME280;27576;53.366;-1.498;2023-05-25T01:25:45;101469.53;;;16.20;86.74
41898;BME280;27576;53.366;-1.498;2023-05-25T01:28:17;101453.75;;;16.10;87.98
41898;BME280;27576;53.366;-1.498;2023-05-25T01:30:48;101448.50;;;16.04;87.68
41898;BME280;27576;53.366;-1.498;2023-05-25T01:33:16;101472.13;;;16.20;88.51
41898;BME280;27576;53.366;-1.498;2023-05-25T01:35:42;101469.47;;;16.13;89.24
41898;BME280;27576;53.366;-1.498;2023-05-25T01:38:08;101459.88;;;16.13;89.84
41898;BME280;27576;53.366;-1.498;2023-05-25T01:40:33;101462.50;;;16.13;89.32
41898;BME280;27576;53.366;-1.498;2023-05-25T01:42:59;101427.50;;;15.93;90.06
41898;BME280;27576;53.366;-1.498;2023-05-25T01:45:24;101455.50;;;16.09;90.89
41898;BME280;27576;53.366;-1.498;2023-05-25T01:48:16;101452.81;;;16.03;92.30
41898;BME280;27576;53.366;-1.498;2023-05-25T01:50:53;101475.56;;;16.13;92.18
41898;BME280;27576;53.366;-1.498;2023-05-25T01:53:25;101468.56;;;16.11;91.81
41898;BME280;27576;53.366;-1.498;2023-05-25T01:55:55;101473.81;;;16.12;90.33
41898;BME280;27576;53.366;-1.498;2023-05-25T01:58:23;101471.16;;;16.06;91.36
41898;BME280;27576;53.366;-1.498;2023-05-25T02:00:50;101479.91;;;16.08;91.59
41898;BME280;27576;53.366;-1.498;2023-05-25T02:03:17;101451.91;;;15.97;91.82
41898;BME280;27576;53.366;-1.498;2023-05-25T02:05:42;101445.72;;;15.87;92.61
41898;BME280;27576;53.366;-1.498;2023-05-25T02:08:08;101448.38;;;15.88;92.88
41898;BME280;27576;53.366;-1.498;2023-05-25T02:10:33;101458.84;;;15.88;91.92
41898;BME280;27576;53.366;-1.498;2023-05-25T02:12:58;101497.28;;;16.06;91.33
41898;BME280;27576;53.366;-1.498;2023-05-25T02:15:24;101484.16;;;15.97;89.94
41898;BME280;27576;53.366;-1.498;2023-05-25T02:17:49;101478.03;;;15.95;89.14
41898;BME280;27576;53.366;-1.498;2023-05-25T02:20:15;101478.91;;;15.94;88.74
41898;BME280;27576;53.366;-1.498;2023-05-25T02:22:40;101466.66;;;15.85;89.09
41898;BME280;27576;53.366;-1.498;2023-05-25T02:25:06;101478.00;;;15.90;88.83
41898;BME280;27576;53.366;-1.498;2023-05-25T02:27:34;101484.09;;;15.88;89.59
41898;BME280;27576;53.366;-1.498;2023-05-25T02:29:59;101463.06;;;15.74;88.52
41898;BME280;27576;53.366;-1.498;2023-05-25T02:32:25;101470.06;;;15.77;87.86
41898;BME280;27576;53.366;-1.498;2023-05-25T02:34:53;101484.09;;;15.88;89.05
41898;BME280;27576;53.366;-1.498;2023-05-25T02:37:18;101491.03;;;15.86;88.37
41898;BME280;27576;53.366;-1.498;2023-05-25T02:39:45;101475.28;;;15.80;89.31
41898;BME280;27576;53.366;-1.498;2023-05-25T02:42:10;101494.47;;;15.79;88.23
41898;BME280;27576;53.366;-1.498;2023-05-25T02:44:36;101496.22;;;15.83;88.10
41898;BME280;27576;53.366;-1.498;2023-05-25T02:47:01;101447.09;;;15.48;87.99
41898;BME280;27576;53.366;-1.498;2023-05-25T02:49:27;101488.31;;;15.75;88.57
41898;BME280;27576;53.366;-1.498;2023-05-25T02:51:53;101455.00;;;15.54;86.56
41898;BME280;27576;53.366;-1.498;2023-05-25T02:54:20;101508.41;;;15.78;87.36
41898;BME280;27576;53.366;-1.498;2023-05-25T02:56:45;101482.97;;;15.63;85.25
41898;BME280;27576;53.366;-1.498;2023-05-25T02:59:11;101494.38;;;15.68;84.12
41898;BME280;27576;53.366;-1.498;2023-05-25T03:01:36;101507.50;;;15.76;81.92
41898;BME280;27576;53.366;-1.498;2023-05-25T03:04:01;101501.38;;;15.74;83.87
41898;BME280;27576;53.366;-1.498;2023-05-25T03:06:27;101480.28;;;15.55;82.90
41898;BME280;27576;53.366;-1.498;2023-05-25T03:08:52;101510.06;;;15.69;83.66
41898;BME280;27576;53.366;-1.498;2023-05-25T03:11:17;101503.97;;;15.69;84.94
41898;BME280;27576;53.366;-1.498;2023-05-25T03:13:43;101510.06;;;15.68;81.47
41898;BME280;27576;53.366;-1.498;2023-05-25T03:16:08;101476.72;;;15.47;82.73
41898;BME280;27576;53.366;-1.498;2023-05-25T03:18:34;101472.31;;;15.41;84.02
41898;BME280;27576;53.366;-1.498;2023-05-25T03:21:00;101455.63;;;15.29;84.63
41898;BME280;27576;53.366;-1.498;2023-05-25T03:23:25;101480.94;;;15.36;83.59
41898;BME280;27576;53.366;-1.498;2023-05-25T03:25:50;101488.84;;;15.42;83.12
41898;BME280;27576;53.366;-1.498;2023-05-25T03:28:16;101513.41;;;15.56;82.99
41898;BME280;27576;53.366;-1.498;2023-05-25T03:30:41;101496.66;;;15.37;83.75
41898;BME280;27576;53.366;-1.498;2023-05-25T03:33:07;101510.66;;;15.47;83.63
41898;BME280;27576;53.366;-1.498;2023-05-25T03:35:32;101511.53;;;15.46;84.64
41898;BME280;27576;53.366;-1.498;2023-05-25T03:37:57;101467.81;;;15.27;83.45
41898;BME280;27576;53.366;-1.498;2023-05-25T03:40:23;101517.63;;;15.48;83.52
41898;BME280;27576;53.366;-1.498;2023-05-25T03:42:48;101515.84;;;15.44;84.36
41898;BME280;27576;53.366;-1.498;2023-05-25T03:45:14;101493.03;;;15.28;83.01
41898;BME280;27576;53.366;-1.498;2023-05-25T03:47:40;101509.63;;;15.30;83.84
41898;BME280;27576;53.366;-1.498;2023-05-25T03:50:05;101519.19;;;15.31;83.53
41898;BME280;27576;53.366;-1.498;2023-05-25T03:52:32;101506.88;;;15.19;82.91
41898;BME280;27576;53.366;-1.498;2023-05-25T03:54:57;101505.06;;;15.10;82.81
41898;BME280;27576;53.366;-1.498;2023-05-25T03:57:23;101521.69;;;15.20;84.01
41898;BME280;27576;53.366;-1.498;2023-05-25T03:59:48;101537.44;;;15.26;84.16
41898;BME280;27576;53.366;-1.498;2023-05-25T04:02:13;101529.50;;;15.17;83.69
41898;BME280;27576;53.366;-1.498;2023-05-25T04:04:39;101511.13;;;15.09;84.23
41898;BME280;27576;53.366;-1.498;2023-05-25T04:07:09;101535.56;;;15.14;82.03
41898;BME280;27576;53.366;-1.498;2023-05-25T04:09:37;101499.59;;;14.90;81.33
41898;BME280;27576;53.366;-1.498;2023-05-25T04:12:02;101545.19;;;15.20;82.41
41898;BME280;27576;53.366;-1.498;2023-05-25T04:14:28;101553.94;;;15.22;81.10
41898;BME280;27576;53.366;-1.498;2023-05-25T04:16:53;101552.16;;;15.19;83.13
41898;BME280;27576;53.366;-1.498;2023-05-25T04:19:18;101545.13;;;15.15;82.11
41898;BME280;27576;53.366;-1.498;2023-05-25T04:21:44;101527.47;;;14.96;82.16
41898;BME280;27576;53.366;-1.498;2023-05-25T04:24:09;101528.34;;;14.95;81.05
41898;BME280;27576;53.366;-1.498;2023-05-25T04:26:35;101530.06;;;14.93;83.29
41898;BME280;27576;53.366;-1.498;2023-05-25T04:29:03;101542.28;;;14.97;81.88
41898;BME280;27576;53.366;-1.498;2023-05-25T04:31:28;101574.66;;;15.10;80.73
41898;BME280;27576;53.366;-1.498;2023-05-25T04:33:54;101535.25;;;14.90;80.06
41898;BME280;27576;53.366;-1.498;2023-05-25T04:36:20;101572.88;;;15.06;81.38
41898;BME280;27576;53.366;-1.498;2023-05-25T04:38:46;101540.38;;;14.84;80.33
41898;BME280;27576;53.366;-1.498;2023-05-25T04:41:12;101575.38;;;14.98;79.77
41898;BME280;27576;53.366;-1.498;2023-05-25T04:43:38;101549.03;;;14.80;80.85
41898;BME280;27576;53.366;-1.498;2023-05-25T04:46:04;101580.59;;;15.00;81.67
41898;BME280;27576;53.366;-1.498;2023-05-25T04:48:29;101556.03;;;14.84;81.97
41898;BME280;27576;53.366;-1.498;2023-05-25T04:50:58;101541.09;;;14.72;83.74
41898;BME280;27576;53.366;-1.498;2023-05-25T04:53:27;101591.97;;;15.02;83.37
41898;BME280;27576;53.366;-1.498;2023-05-25T04:55:54;101584.97;;;14.99;84.11
41898;BME280;27576;53.366;-1.498;2023-05-25T04:58:21;101570.00;;;14.86;82.94
41898;BME280;27576;53.366;-1.498;2023-05-25T05:00:46;101518.31;;;14.59;81.65
41898;BME280;27576;53.366;-1.498;2023-05-25T05:03:12;101592.78;;;15.01;81.56
41898;BME280;27576;53.366;-1.498;2023-05-25T05:05:37;101564.72;;;14.83;81.26
41898;BME280;27576;53.366;-1.498;2023-05-25T05:08:03;101586.66;;;14.97;81.89
41898;BME280;27576;53.366;-1.498;2023-05-25T05:10:28;101577.00;;;14.90;82.80
41898;BME280;27576;53.366;-1.498;2023-05-25T05:12:54;101584.91;;;14.94;81.41
41898;BME280;27576;53.366;-1.498;2023-05-25T05:15:19;101587.50;;;14.94;80.37
41898;BME280;27576;53.366;-1.498;2023-05-25T05:17:44;101545.47;;;14.75;82.97
41898;BME280;27576;53.366;-1.498;2023-05-25T05:20:10;101584.03;;;14.97;83.55
41898;BME280;27576;53.366;-1.498;2023-05-25T05:22:36;101596.28;;;15.01;84.02
41898;BME280;27576;53.366;-1.498;2023-05-25T05:25:02;101590.22;;;15.02;81.70
41898;BME280;27576;53.366;-1.498;2023-05-25T05:27:27;101582.25;;;14.93;81.21
41898;BME280;27576;53.366;-1.498;2023-05-25T05:29:53;101573.53;;;14.91;81.57
41898;BME280;27576;53.366;-1.498;2023-05-25T05:32:18;101614.75;;;15.13;80.19
41898;BME280;27576;53.366;-1.498;2023-05-25T05:34:43;101594.53;;;15.00;79.03
41898;BME280;27576;53.366;-1.498;2023-05-25T05:37:09;101587.44;;;14.90;79.98
41898;BME280;27576;53.366;-1.498;2023-05-25T05:39:34;101605.91;;;15.04;79.48
41898;BME280;27576;53.366;-1.498;2023-05-25T05:42:00;101579.53;;;14.85;79.22
41898;BME280;27576;53.366;-1.498;2023-05-25T05:44:26;101621.59;;;15.07;80.65
41898;BME280;27576;53.366;-1.498;2023-05-25T05:46:51;101616.28;;;14.99;80.50
41898;BME280;27576;53.366;-1.498;2023-05-25T05:49:16;101540.00;;;14.56;79.66
41898;BME280;27576;53.366;-1.498;2023-05-25T05:51:42;101618.94;;;15.04;80.03
41898;BME280;27576;53.366;-1.498;2023-05-25T05:54:07;101578.53;;;14.76;78.86
41898;BME280;27576;53.366;-1.498;2023-05-25T05:56:32;101610.03;;;14.86;79.98
41898;BME280;27576;53.366;-1.498;2023-05-25T05:58:58;101622.22;;;14.89;77.97
41898;BME280;27576;53.366;-1.498;2023-05-25T06:01:23;101606.44;;;14.80;78.63
41898;BME280;27576;53.366;-1.498;2023-05-25T06:03:49;101607.25;;;14.77;78.86
41898;BME280;27576;53.366;-1.498;2023-05-25T06:06:16;101616.06;;;14.85;79.50
41898;BME280;27576;53.366;-1.498;2023-05-25T06:08:42;101618.72;;;14.87;78.56
41898;BME280;27576;53.366;-1.498;2023-05-25T06:11:08;101618.78;;;14.90;77.98
41898;BME280;27576;53.366;-1.498;2023-05-25T06:13:33;101638.09;;;15.04;77.21
41898;BME280;27576;53.366;-1.498;2023-05-25T06:15:58;101603.97;;;14.90;79.11
41898;BME280;27576;53.366;-1.498;2023-05-25T06:18:24;101611.94;;;15.01;77.02
41898;BME280;27576;53.366;-1.498;2023-05-25T06:20:49;101609.31;;;15.01;77.37
41898;BME280;27576;53.366;-1.498;2023-05-25T06:23:15;101608.53;;;15.05;76.93
41898;BME280;27576;53.366;-1.498;2023-05-25T06:25:43;101627.81;;;15.16;76.96
41898;BME280;27576;53.366;-1.498;2023-05-25T06:28:08;101621.72;;;15.14;77.93
41898;BME280;27576;53.366;-1.498;2023-05-25T06:30:34;101611.28;;;15.16;76.47
41898;BME280;27576;53.366;-1.498;2023-05-25T06:32:59;101622.81;;;15.32;75.53
41898;BME280;27576;53.366;-1.498;2023-05-25T06:35:25;101643.94;;;15.49;74.93
41898;BME280;27576;53.366;-1.498;2023-05-25T06:37:50;101641.44;;;15.59;75.93
41898;BME280;27576;53.366;-1.498;2023-05-25T06:40:16;101637.25;;;15.70;74.44
41898;BME280;27576;53.366;-1.498;2023-05-25T06:42:42;101630.44;;;15.85;71.18
41898;BME280;27576;53.366;-1.498;2023-05-25T06:45:08;101629.66;;;15.93;71.23
41898;BME280;27576;53.366;-1.498;2023-05-25T06:47:34;101630.69;;;16.09;72.10
41898;BME280;27576;53.366;-1.498;2023-05-25T06:50:00;101641.22;;;16.18;71.00
41898;BME280;27576;53.366;-1.498;2023-05-25T06:52:25;101641.31;;;16.28;70.72
41898;BME280;27576;53.366;-1.498;2023-05-25T06:54:55;101647.47;;;16.33;71.99
41898;BME280;27576;53.366;-1.498;2023-05-25T06:57:21;101610.75;;;16.22;70.16
41898;BME280;27576;53.366;-1.498;2023-05-25T06:59:47;101616.94;;;16.32;69.52
41898;BME280;27576;53.366;-1.498;2023-05-25T07:02:12;101646.72;;;16.49;70.04
41898;BME280;27576;53.366;-1.498;2023-05-25T07:04:38;101648.56;;;16.59;70.25
41898;BME280;27576;53.366;-1.498;2023-05-25T07:07:03;101647.78;;;16.71;68.78
41898;BME280;27576;53.366;-1.498;2023-05-25T07:09:28;101617.13;;;16.56;70.51
41898;BME280;27576;53.366;-1.498;2023-05-25T07:11:54;101626.75;;;16.60;68.60
41898;BME280;27576;53.366;-1.498;2023-05-25T07:14:19;101623.34;;;16.67;67.71
41898;BME280;27576;53.366;-1.498;2023-05-25T07:16:45;101634.75;;;16.74;67.27
41898;BME280;27576;53.366;-1.498;2023-05-25T07:19:10;101633.88;;;16.77;67.34
41898;BME280;27576;53.366;-1.498;2023-05-25T07:21:36;101649.69;;;16.87;66.70
41898;BME280;27576;53.366;-1.498;2023-05-25T07:24:04;101663.75;;;17.02;67.29
41898;BME280;27576;53.366;-1.498;2023-05-25T07:26:30;101673.38;;;17.09;65.96
41898;BME280;27576;53.366;-1.498;2023-05-25T07:28:56;101648.91;;;17.02;67.28
41898;BME280;27576;53.366;-1.498;2023-05-25T07:31:22;101652.41;;;17.07;65.14
41898;BME280;27576;53.366;-1.498;2023-05-25T07:33:47;101634.94;;;17.05;67.12
41898;BME280;27576;53.366;-1.498;2023-05-25T07:36:13;101642.00;;;17.15;66.15
41898;BME280;27576;53.366;-1.498;2023-05-25T07:38:38;101637.66;;;17.23;66.53
41898;BME280;27576;53.366;-1.498;2023-05-25T07:41:04;101673.59;;;17.47;66.00
41898;BME280;27576;53.366;-1.498;2023-05-25T07:43:29;101666.59;;;17.48;66.22
41898;BME280;27576;53.366;-1.498;2023-05-25T07:45:55;101646.50;;;17.43;65.54
41898;BME280;27576;53.366;-1.498;2023-05-25T07:48:21;101642.19;;;17.58;64.76
41898;BME280;27576;53.366;-1.498;2023-05-25T07:50:46;101655.34;;;17.72;65.14
41898;BME280;27576;53.366;-1.498;2023-05-25T07:53:11;101657.13;;;17.79;64.92
41898;BME280;27576;53.366;-1.498;2023-05-25T07:55:37;101651.91;;;17.88;64.89
41898;BME280;27576;53.366;-1.498;2023-05-25T07:58:02;101656.34;;;17.97;64.22
41898;BME280;27576;53.366;-1.498;2023-05-25T08:00:28;101646.72;;;17.97;63.18
41898;BME280;27576;53.366;-1.498;2023-05-25T08:02:54;101671.25;;;18.24;63.33
41898;BME280;27576;53.366;-1.498;2023-05-25T08:05:20;101666.84;;;18.23;62.08
41898;BME280;27576;53.366;-1.498;2023-05-25T08:07:45;101639.72;;;18.10;62.31
41898;BME280;27576;53.366;-1.498;2023-05-25T08:10:10;101678.25;;;18.37;61.38
41898;BME280;27576;53.366;-1.498;2023-05-25T08:12:36;101671.25;;;18.39;61.46
41898;BME280;27576;53.366;-1.498;2023-05-25T08:15:01;101659.88;;;18.29;63.00
41898;BME280;27576;53.366;-1.498;2023-05-25T08:17:27;101645.88;;;18.24;61.66
41898;BME280;27576;53.366;-1.498;2023-05-25T08:19:53;101693.13;;;18.53;62.67
41898;BME280;27576;53.366;-1.498;2023-05-25T08:22:19;101698.41;;;18.59;62.70
41898;BME280;27576;53.366;-1.498;2023-05-25T08:24:45;101673.88;;;18.50;63.07
41898;BME280;27576;53.366;-1.498;2023-05-25T08:27:10;101679.13;;;18.54;62.48
41898;BME280;27576;53.366;-1.498;2023-05-25T08:29:36;101680.88;;;18.61;62.22
41898;BME280;27576;53.366;-1.498;2023-05-25T08:32:01;101662.50;;;18.57;61.67
41898;BME280;27576;53.366;-1.498;2023-05-25T08:34:26;101659.88;;;18.61;58.96
41898;BME280;27576;53.366;-1.498;2023-05-25T08:36:56;101673.00;;;18.66;61.19
41898;BME280;27576;53.366;-1.498;2023-05-25T08:39:21;101690.53;;;18.88;61.45
41898;BME280;27576;53.366;-1.498;2023-05-25T08:41:49;101701.00;;;19.08;60.22
41898;BME280;27576;53.366;-1.498;2023-05-25T08:44:15;101667.78;;;18.98;60.34
41898;BME280;27576;53.366;-1.498;2023-05-25T08:46:40;101680.88;;;19.06;60.89
41898;BME280;27576;53.366;-1.498;2023-05-25T08:49:13;101665.09;;;19.06;60.05
41898;BME280;27576;53.366;-1.498;2023-05-25T08:51:47;101679.13;;;19.06;58.43
41898;BME280;27576;53.366;-1.498;2023-05-25T08:54:18;101704.44;;;19.33;60.13
41898;BME280;27576;53.366;-1.498;2023-05-25T08:57:22;101701.81;;;19.44;58.13
41898;BME280;27576;53.366;-1.498;2023-05-25T08:59:54;101665.94;;;19.31;56.97
41898;BME280;27576;53.366;-1.498;2023-05-25T09:05:22;101673.69;;;19.77;57.26
41898;BME280;27576;53.366;-1.498;2023-05-25T09:07:48;101698.13;;;19.97;57.00
41898;BME280;27576;53.366;-1.498;2023-05-25T09:10:16;101702.47;;;20.04;55.55
41898;BME280;27576;53.366;-1.498;2023-05-25T09:12:42;101677.06;;;20.00;56.36
41898;BME280;27576;53.366;-1.498;2023-05-25T09:15:11;101710.22;;;20.29;53.94
41898;BME280;27576;53.366;-1.498;2023-05-25T09:17:37;101684.75;;;20.29;53.67
41898;BME280;27576;53.366;-1.498;2023-05-25T09:20:03;101675.94;;;20.37;52.18
41898;BME280;27576;53.366;-1.498;2023-05-25T09:22:28;101691.66;;;20.46;52.48
41898;BME280;27576;53.366;-1.498;2023-05-25T09:24:54;101667.16;;;20.34;51.93
41898;BME280;27576;53.366;-1.498;2023-05-25T09:27:21;101685.50;;;20.48;52.04
41898;BME280;27576;53.366;-1.498;2023-05-25T09:29:48;101708.25;;;20.62;52.19
41898;BME280;27576;53.366;-1.498;2023-05-25T09:32:18;101673.22;;;20.52;51.09
41898;BME280;27576;53.366;-1.498;2023-05-25T09:34:44;101701.09;;;20.76;52.60
41898;BME280;27576;53.366;-1.498;2023-05-25T09:37:14;101691.34;;;20.86;52.54
41898;BME280;27576;53.366;-1.498;2023-05-25T09:39:44;101712.31;;;20.99;52.09
41898;BME280;27576;53.366;-1.498;2023-05-25T09:42:10;101721.00;;;21.11;50.72
41898;BME280;27576;53.366;-1.498;2023-05-25T09:44:39;101714.94;;;20.99;47.86
41898;BME280;27576;53.366;-1.498;2023-05-25T09:47:05;101722.75;;;21.12;50.74
41898;BME280;27576;53.366;-1.498;2023-05-25T09:49:30;101685.09;;;20.99;48.75
41898;BME280;27576;53.366;-1.498;2023-05-25T09:51:56;101721.13;;;20.94;49.01
41898;BME280;27576;53.366;-1.498;2023-05-25T09:54:21;101684.53;;;20.65;50.74
41898;BME280;27576;53.366;-1.498;2023-05-25T09:56:47;101715.03;;;20.89;50.35
41898;BME280;27576;53.366;-1.498;2023-05-25T09:59:13;101710.56;;;20.97;50.89
41898;BME280;27576;53.366;-1.498;2023-05-25T10:01:39;101718.28;;;21.18;49.96
41898;BME280;27576;53.366;-1.498;2023-05-25T10:04:04;101731.31;;;21.33;50.12
41898;BME280;27576;53.366;-1.498;2023-05-25T10:06:30;101715.47;;;21.38;48.38
41898;BME280;27576;53.366;-1.498;2023-05-25T10:08:57;101723.25;;;21.49;46.26
41898;BME280;27576;53.366;-1.498;2023-05-25T10:11:23;101724.91;;;21.56;47.92
41898;BME280;27576;53.366;-1.498;2023-05-25T10:13:51;101726.53;;;21.68;46.45
41898;BME280;27576;53.366;-1.498;2023-05-25T10:16:17;101711.53;;;21.71;46.61
41898;BME280;27576;53.366;-1.498;2023-05-25T10:18:47;101709.63;;;21.84;46.45
41898;BME280;27576;53.366;-1.498;2023-05-25T10:21:17;101726.06;;;22.04;46.59
41898;BME280;27576;53.366;-1.498;2023-05-25T10:23:47;101722.44;;;22.15;46.76
41898;BME280;27576;53.366;-1.498;2023-05-25T10:26:21;101720.91;;;21.95;46.63
41898;BME280;27576;53.366;-1.498;2023-05-25T10:28:55;101724.41;;;21.97;48.11
41898;BME280;27576;53.366;-1.498;2023-05-25T10:31:20;101717.22;;;22.09;47.38
41898;BME280;27576;53.366;-1.498;2023-05-25T10:33:46;101671.75;;;21.88;47.41
41898;BME280;27576;53.366;-1.498;2023-05-25T10:36:12;101692.88;;;21.87;46.87
41898;BME280;27576;53.366;-1.498;2023-05-25T10:38:41;101703.69;;;21.67;48.35
41898;BME280;27576;53.366;-1.498;2023-05-25T10:41:09;101687.06;;;21.62;48.41
41898;BME280;27576;53.366;-1.498;2023-05-25T10:43:36;101717.56;;;21.81;48.30
41898;BME280;27576;53.366;-1.498;2023-05-25T10:46:04;101718.28;;;21.95;49.34
41898;BME280;27576;53.366;-1.498;2023-05-25T10:48:37;101706.75;;;22.02;48.07
41898;BME280;27576;53.366;-1.498;2023-05-25T10:51:03;101717.38;;;21.96;46.81
41898;BME280;27576;53.366;-1.498;2023-05-25T10:53:28;101722.78;;;21.87;48.95
41898;BME280;27576;53.366;-1.498;2023-05-25T10:56:05;101722.53;;;22.04;49.09
41898;BME280;27576;53.366;-1.498;2023-05-25T10:58:31;101710.09;;;22.15;49.18
41898;BME280;27576;53.366;-1.498;2023-05-25T11:01:02;101713.19;;;22.45;47.79
41898;BME280;27576;53.366;-1.498;2023-05-25T11:04:12;101735.41;;;22.87;45.85
41898;BME280;27576;53.366;-1.498;2023-05-25T11:09:05;101709.28;;;22.69;44.81
41898;BME280;27576;53.366;-1.498;2023-05-25T11:14:28;101724.06;;;22.23;45.10
41898;BME280;27576;53.366;-1.498;2023-05-25T11:17:13;101735.63;;;22.12;49.05
41898;BME280;27576;53.366;-1.498;2023-05-25T11:19:47;101733.38;;;21.86;47.26
41898;BME280;27576;53.366;-1.498;2023-05-25T11:22:19;101731.69;;;21.78;46.00
41898;BME280;27576;53.366;-1.498;2023-05-25T11:24:57;101721.63;;;22.06;44.73
41898;BME280;27576;53.366;-1.498;2023-05-25T11:27:30;101722.06;;;22.39;44.37
41898;BME280;27576;53.366;-1.498;2023-05-25T11:29:57;101700.78;;;22.50;44.01
41898;BME280;27576;53.366;-1.498;2023-05-25T11:32:24;101718.78;;;22.79;43.81
41898;BME280;27576;53.366;-1.498;2023-05-25T11:34:55;101706.34;;;22.87;43.90
41898;BME280;27576;53.366;-1.498;2023-05-25T11:37:22;101720.94;;;23.10;42.93
41898;BME280;27576;53.366;-1.498;2023-05-25T11:39:53;101709.53;;;23.08;43.08
41898;BME280;27576;53.366;-1.498;2023-05-25T11:42:20;101716.50;;;23.12;43.69
41898;BME280;27576;53.366;-1.498;2023-05-25T11:44:45;101725.84;;;23.30;43.43
41898;BME280;27576;53.366;-1.498;2023-05-25T11:47:12;101725.66;;;23.40;40.23
41898;BME280;27576;53.366;-1.498;2023-05-25T11:49:39;101712.94;;;23.58;44.64
41898;BME280;27576;53.366;-1.498;2023-05-25T11:52:14;101709.41;;;23.59;42.52
41898;BME280;27576;53.366;-1.498;2023-05-25T11:54:40;101706.88;;;23.52;41.23
41898;BME280;27576;53.366;-1.498;2023-05-25T11:59:38;101717.94;;;23.28;42.47
41898;BME280;27576;53.366;-1.498;2023-05-25T12:02:04;101704.09;;;23.14;43.10
41898;BME280;27576;53.366;-1.498;2023-05-25T12:04:30;101698.03;;;23.09;41.43
41898;BME280;27576;53.366;-1.498;2023-05-25T12:07:03;101702.69;;;22.94;39.50
41898;BME280;27576;53.366;-1.498;2023-05-25T12:09:29;101697.91;;;22.65;41.80
41898;BME280;27576;53.366;-1.498;2023-05-25T12:11:55;101710.53;;;22.46;42.17
41898;BME280;27576;53.366;-1.498;2023-05-25T12:14:21;101689.16;;;22.01;43.53
41898;BME280;27576;53.366;-1.498;2023-05-25T12:16:48;101711.19;;;21.99;43.27
41898;BME280;27576;53.366;-1.498;2023-05-25T12:19:14;101684.25;;;21.74;42.90
41898;BME280;27576;53.366;-1.498;2023-05-25T12:21:41;101679.00;;;21.74;44.12
41898;BME280;27576;53.366;-1.498;2023-05-25T12:24:08;101712.94;;;22.00;44.07
41898;BME280;27576;53.366;-1.498;2023-05-25T12:26:34;101674.47;;;21.82;44.43
41898;BME280;27576;53.366;-1.498;2023-05-25T12:29:10;101680.28;;;22.07;44.47
41898;BME280;27576;53.366;-1.498;2023-05-25T12:31:36;101706.22;;;22.39;44.13
41898;BME280;27576;53.366;-1.498;2023-05-25T12:39:31;101692.97;;;22.96;42.37
41898;BME280;27576;53.366;-1.498;2023-05-25T12:41:59;101695.06;;;23.27;42.55
41898;BME280;27576;53.366;-1.498;2023-05-25T12:44:33;101701.63;;;23.51;42.67
41898;BME280;27576;53.366;-1.498;2023-05-25T12:47:15;101697.88;;;23.61;41.29
41898;BME280;27576;53.366;-1.498;2023-05-25T12:49:45;101693.16;;;23.77;42.43
41898;BME280;27576;53.366;-1.498;2023-05-25T12:52:30;101696.88;;;24.09;41.06
41898;BME280;27576;53.366;-1.498;2023-05-25T12:54:56;101672.81;;;24.19;38.83
41898;BME280;27576;53.366;-1.498;2023-05-25T12:57:21;101656.47;;;24.38;40.41